sensor_id;sensor_type;location;lat;lon;timestamp;P1;durP1;ratioP1;P2;durP2;ratioP2
22068;SDS011;13887;57.196;-2.100;2023-02-12T00:01:22;11.27;;;10.87;;
22068;SDS011;13887;57.196;-2.100;2023-02-12T00:03:50;11.10;;;10.77;;
22068;SDS011;13887;57.196;-2.100;2023-02-12T00:06:17;11.83;;;11.43;;
22068;SDS011;13887;57.196;-2.100;2023-02-12T00:08:47;11.87;;;11.47;;
22068;SDS011;13887;57.196;-2.100;2023-02-12T00:11:16;12.77;;;12.37;;
22068;SDS011;13887;57.196;-2.100;2023-02-12T00:13:45;11.77;;;11.37;;
22068;SDS011;13887;57.196;-2.100;2023-02-12T00:16:14;11.67;;;11.27;;
22068;SDS011;13887;57.196;-2.100;2023-02-12T00:18:42;12.10;;;11.70;;
22068;SDS011;13887;57.196;-2.100;2023-02-12T00:21:10;12.43;;;12.03;;
22068;SDS011;13887;57.196;-2.100;2023-02-12T00:23:39;12.20;;;11.80;;
22068;SDS011;13887;57.196;-2.100;2023-02-12T00:26:07;12.27;;;11.87;;
22068;SDS011;13887;57.196;-2.100;2023-02-12T00:28:47;12.30;;;11.90;;
22068;SDS011;13887;57.196;-2.100;2023-02-12T00:31:17;12.13;;;11.73;;
22068;SDS011;13887;57.196;-2.100;2023-02-12T00:33:46;12.10;;;11.70;;
22068;SDS011;13887;57.196;-2.100;2023-02-12T00:36:14;12.60;;;12.20;;
22068;SDS011;13887;57.196;-2.100;2023-02-12T00:38:44;12.23;;;11.83;;
22068;SDS011;13887;57.196;-2.100;2023-02-12T00:41:12;12.27;;;11.87;;
22068;SDS011;13887;57.196;-2.100;2023-02-12T00:43:39;12.40;;;12.00;;
22068;SDS011;13887;57.196;-2.100;2023-02-12T00:46:06;12.07;;;11.67;;
22068;SDS011;13887;57.196;-2.100;2023-02-12T00:48:34;12.30;;;11.90;;
22068;SDS011;13887;57.196;-2.100;2023-02-12T00:51:02;12.20;;;11.80;;
22068;SDS011;13887;57.196;-2.100;2023-02-12T00:53:30;12.10;;;11.70;;
22068;SDS011;13887;57.196;-2.100;2023-02-12T00:55:58;12.40;;;12.00;;
22068;SDS011;13887;57.196;-2.100;2023-02-12T00:58:25;12.67;;;12.27;;
22068;SDS011;13887;57.196;-2.100;2023-02-12T01:00:53;12.30;;;11.90;;
22068;SDS011;13887;57.196;-2.100;2023-02-12T01:03:21;12.20;;;11.80;;
22068;SDS011;13887;57.196;-2.100;2023-02-12T01:05:50;12.00;;;11.60;;
22068;SDS011;13887;57.196;-2.100;2023-02-12T01:08:19;12.33;;;11.93;;
22068;SDS011;13887;57.196;-2.100;2023-02-12T01:10:53;12.17;;;11.77;;
22068;SDS011;13887;57.196;-2.100;2023-02-12T01:13:24;12.50;;;12.10;;
22068;SDS011;13887;57.196;-2.100;2023-02-12T01:16:06;12.13;;;11.73;;
22068;SDS011;13887;57.196;-2.100;2023-02-12T01:18:40;11.90;;;11.50;;
22068;SDS011;13887;57.196;-2.100;2023-02-12T01:21:15;11.80;;;11.40;;
22068;SDS011;13887;57.196;-2.100;2023-02-12T01:23:43;11.70;;;11.30;;
22068;SDS011;13887;57.196;-2.100;2023-02-12T01:26:11;11.77;;;11.37;;
22068;SDS011;13887;57.196;-2.100;2023-02-12T01:28:40;11.80;;;11.40;;
22068;SDS011;13887;57.196;-2.100;2023-02-12T01:31:09;12.10;;;11.70;;
22068;SDS011;13887;57.196;-2.100;2023-02-12T01:33:38;11.87;;;11.47;;
22068;SDS011;13887;57.196;-2.100;2023-02-12T01:36:05;12.37;;;11.97;;
22068;SDS011;13887;57.196;-2.100;2023-02-12T01:38:32;12.50;;;12.10;;
22068;SDS011;13887;57.196;-2.100;2023-02-12T01:41:08;12.30;;;11.90;;
22068;SDS011;13887;57.196;-2.100;2023-02-12T01:43:37;12.67;;;12.27;;
22068;SDS011;13887;57.196;-2.100;2023-02-12T01:46:05;12.60;;;12.20;;
22068;SDS011;13887;57.196;-2.100;2023-02-12T01:48:35;12.77;;;12.37;;
22068;SDS011;13887;57.196;-2.100;2023-02-12T01:51:06;12.43;;;12.03;;
22068;SDS011;13887;57.196;-2.100;2023-02-12T01:53:54;12.17;;;11.77;;
22068;SDS011;13887;57.196;-2.100;2023-02-12T01:56:25;12.47;;;12.07;;
22068;SDS011;13887;57.196;-2.100;2023-02-12T01:58:52;12.43;;;12.03;;
22068;SDS011;13887;57.196;-2.100;2023-02-12T02:01:22;12.57;;;12.17;;
22068;SDS011;13887;57.196;-2.100;2023-02-12T02:03:53;12.40;;;12.00;;
22068;SDS011;13887;57.196;-2.100;2023-02-12T02:06:26;12.03;;;11.63;;
22068;SDS011;13887;57.196;-2.100;2023-02-12T02:08:58;12.20;;;11.80;;
22068;SDS011;13887;57.196;-2.100;2023-02-12T02:11:26;12.20;;;11.80;;
22068;SDS011;13887;57.196;-2.100;2023-02-12T02:14:12;12.33;;;11.93;;
22068;SDS011;13887;57.196;-2.100;2023-02-12T02:22:40;12.40;;;12.00;;
22068;SDS011;13887;57.196;-2.100;2023-02-12T02:26:05;12.20;;;11.80;;
22068;SDS011;13887;57.196;-2.100;2023-02-12T02:30:39;11.97;;;11.57;;
22068;SDS011;13887;57.196;-2.100;2023-02-12T02:36:01;12.40;;;12.00;;
22068;SDS011;13887;57.196;-2.100;2023-02-12T02:38:44;12.23;;;11.83;;
22068;SDS011;13887;57.196;-2.100;2023-02-12T02:41:34;12.13;;;11.73;;
22068;SDS011;13887;57.196;-2.100;2023-02-12T02:44:08;12.63;;;12.23;;
22068;SDS011;13887;57.196;-2.100;2023-02-12T02:46:46;12.17;;;11.77;;
22068;SDS011;13887;57.196;-2.100;2023-02-12T02:49:16;12.10;;;11.70;;
22068;SDS011;13887;57.196;-2.100;2023-02-12T02:51:53;12.23;;;11.83;;
22068;SDS011;13887;57.196;-2.100;2023-02-12T02:54:27;12.30;;;11.90;;
22068;SDS011;13887;57.196;-2.100;2023-02-12T02:57:02;12.10;;;11.70;;
22068;SDS011;13887;57.196;-2.100;2023-02-12T02:59:42;12.10;;;11.70;;
22068;SDS011;13887;57.196;-2.100;2023-02-12T03:02:17;11.93;;;11.53;;
22068;SDS011;13887;57.196;-2.100;2023-02-12T03:04:49;11.90;;;11.50;;
22068;SDS011;13887;57.196;-2.100;2023-02-12T03:12:54;12.23;;;11.83;;
22068;SDS011;13887;57.196;-2.100;2023-02-12T03:15:38;12.40;;;12.00;;
22068;SDS011;13887;57.196;-2.100;2023-02-12T03:18:15;12.47;;;12.07;;
22068;SDS011;13887;57.196;-2.100;2023-02-12T03:20:54;12.20;;;11.80;;
22068;SDS011;13887;57.196;-2.100;2023-02-12T03:23:28;12.40;;;12.00;;
22068;SDS011;13887;57.196;-2.100;2023-02-12T03:26:06;12.30;;;11.90;;
22068;SDS011;13887;57.196;-2.100;2023-02-12T03:28:37;12.43;;;12.03;;
22068;SDS011;13887;57.196;-2.100;2023-02-12T03:42:07;12.10;;;11.70;;
22068;SDS011;13887;57.196;-2.100;2023-02-12T03:44:58;12.27;;;11.87;;
22068;SDS011;13887;57.196;-2.100;2023-02-12T03:50:16;12.50;;;12.10;;
22068;SDS011;13887;57.196;-2.100;2023-02-12T03:52:58;12.13;;;11.73;;
22068;SDS011;13887;57.196;-2.100;2023-02-12T03:55:25;12.03;;;11.63;;
22068;SDS011;13887;57.196;-2.100;2023-02-12T03:57:56;11.70;;;11.30;;
22068;SDS011;13887;57.196;-2.100;2023-02-12T04:00:26;12.03;;;11.63;;
22068;SDS011;13887;57.196;-2.100;2023-02-12T04:02:53;12.40;;;12.00;;
22068;SDS011;13887;57.196;-2.100;2023-02-12T04:05:22;11.87;;;11.47;;
22068;SDS011;13887;57.196;-2.100;2023-02-12T04:07:51;11.70;;;11.30;;
22068;SDS011;13887;57.196;-2.100;2023-02-12T04:10:21;12.20;;;11.80;;
22068;SDS011;13887;57.196;-2.100;2023-02-12T04:13:40;12.07;;;11.67;;
22068;SDS011;13887;57.196;-2.100;2023-02-12T04:18:46;11.97;;;11.57;;
22068;SDS011;13887;57.196;-2.100;2023-02-12T04:21:20;11.83;;;11.43;;
22068;SDS011;13887;57.196;-2.100;2023-02-12T04:26:53;11.60;;;11.20;;
22068;SDS011;13887;57.196;-2.100;2023-02-12T04:32:20;11.77;;;11.37;;
22068;SDS011;13887;57.196;-2.100;2023-02-12T04:35:26;11.80;;;11.40;;
22068;SDS011;13887;57.196;-2.100;2023-02-12T04:38:06;12.03;;;11.63;;
22068;SDS011;13887;57.196;-2.100;2023-02-12T04:40:55;12.00;;;11.60;;
22068;SDS011;13887;57.196;-2.100;2023-02-12T04:43:30;12.13;;;11.73;;
22068;SDS011;13887;57.196;-2.100;2023-02-12T04:46:03;11.97;;;11.57;;
22068;SDS011;13887;57.196;-2.100;2023-02-12T04:48:32;12.00;;;11.60;;
22068;SDS011;13887;57.196;-2.100;2023-02-12T04:51:00;11.73;;;11.33;;
22068;SDS011;13887;57.196;-2.100;2023-02-12T04:53:27;11.77;;;11.37;;
22068;SDS011;13887;57.196;-2.100;2023-02-12T04:55:54;12.27;;;11.87;;
22068;SDS011;13887;57.196;-2.100;2023-02-12T04:58:22;12.13;;;11.73;;
22068;SDS011;13887;57.196;-2.100;2023-02-12T05:00:49;12.23;;;11.83;;
22068;SDS011;13887;57.196;-2.100;2023-02-12T05:03:16;12.33;;;11.93;;
22068;SDS011;13887;57.196;-2.100;2023-02-12T05:05:43;12.33;;;11.93;;
22068;SDS011;13887;57.196;-2.100;2023-02-12T05:08:10;12.00;;;11.60;;
22068;SDS011;13887;57.196;-2.100;2023-02-12T05:10:37;12.13;;;11.73;;
22068;SDS011;13887;57.196;-2.100;2023-02-12T05:13:04;12.07;;;11.67;;
22068;SDS011;13887;57.196;-2.100;2023-02-12T05:15:31;12.20;;;11.80;;
22068;SDS011;13887;57.196;-2.100;2023-02-12T05:17:58;12.13;;;11.73;;
22068;SDS011;13887;57.196;-2.100;2023-02-12T05:20:24;12.57;;;12.17;;
22068;SDS011;13887;57.196;-2.100;2023-02-12T05:22:52;12.30;;;11.90;;
22068;SDS011;13887;57.196;-2.100;2023-02-12T05:25:19;12.50;;;12.10;;
22068;SDS011;13887;57.196;-2.100;2023-02-12T05:27:46;12.33;;;11.93;;
22068;SDS011;13887;57.196;-2.100;2023-02-12T05:30:14;12.83;;;12.43;;
22068;SDS011;13887;57.196;-2.100;2023-02-12T05:32:41;12.57;;;12.17;;
22068;SDS011;13887;57.196;-2.100;2023-02-12T05:35:08;12.37;;;11.97;;
22068;SDS011;13887;57.196;-2.100;2023-02-12T05:37:34;12.30;;;11.90;;
22068;SDS011;13887;57.196;-2.100;2023-02-12T05:40:05;12.13;;;11.73;;
22068;SDS011;13887;57.196;-2.100;2023-02-12T05:42:34;12.30;;;11.90;;
22068;SDS011;13887;57.196;-2.100;2023-02-12T05:45:02;12.30;;;11.90;;
22068;SDS011;13887;57.196;-2.100;2023-02-12T05:47:29;11.97;;;11.57;;
22068;SDS011;13887;57.196;-2.100;2023-02-12T05:49:56;12.20;;;11.80;;
22068;SDS011;13887;57.196;-2.100;2023-02-12T05:52:23;12.30;;;11.90;;
22068;SDS011;13887;57.196;-2.100;2023-02-12T05:54:50;12.40;;;12.00;;
22068;SDS011;13887;57.196;-2.100;2023-02-12T05:57:17;12.17;;;11.77;;
22068;SDS011;13887;57.196;-2.100;2023-02-12T05:59:44;12.47;;;12.07;;
22068;SDS011;13887;57.196;-2.100;2023-02-12T06:02:12;12.70;;;12.30;;
22068;SDS011;13887;57.196;-2.100;2023-02-12T06:04:39;12.80;;;12.40;;
22068;SDS011;13887;57.196;-2.100;2023-02-12T06:07:06;12.50;;;12.10;;
22068;SDS011;13887;57.196;-2.100;2023-02-12T06:09:33;13.00;;;12.60;;
22068;SDS011;13887;57.196;-2.100;2023-02-12T06:12:00;12.57;;;12.17;;
22068;SDS011;13887;57.196;-2.100;2023-02-12T06:14:27;12.63;;;12.23;;
22068;SDS011;13887;57.196;-2.100;2023-02-12T06:16:57;13.10;;;12.70;;
22068;SDS011;13887;57.196;-2.100;2023-02-12T06:19:24;13.10;;;12.70;;
22068;SDS011;13887;57.196;-2.100;2023-02-12T06:21:51;13.00;;;12.60;;
22068;SDS011;13887;57.196;-2.100;2023-02-12T06:24:18;12.53;;;12.13;;
22068;SDS011;13887;57.196;-2.100;2023-02-12T06:26:47;12.80;;;12.40;;
22068;SDS011;13887;57.196;-2.100;2023-02-12T06:29:19;12.47;;;12.07;;
22068;SDS011;13887;57.196;-2.100;2023-02-12T06:31:47;12.50;;;12.10;;
22068;SDS011;13887;57.196;-2.100;2023-02-12T06:34:15;12.40;;;12.00;;
22068;SDS011;13887;57.196;-2.100;2023-02-12T06:36:45;12.23;;;11.83;;
22068;SDS011;13887;57.196;-2.100;2023-02-12T06:39:14;12.20;;;11.80;;
22068;SDS011;13887;57.196;-2.100;2023-02-12T06:41:42;12.00;;;11.60;;
22068;SDS011;13887;57.196;-2.100;2023-02-12T06:44:10;12.37;;;11.97;;
22068;SDS011;13887;57.196;-2.100;2023-02-12T06:46:38;12.57;;;12.17;;
22068;SDS011;13887;57.196;-2.100;2023-02-12T06:49:05;12.60;;;12.20;;
22068;SDS011;13887;57.196;-2.100;2023-02-12T06:51:32;12.63;;;12.23;;
22068;SDS011;13887;57.196;-2.100;2023-02-12T06:54:01;12.73;;;12.33;;
22068;SDS011;13887;57.196;-2.100;2023-02-12T06:56:28;12.77;;;12.37;;
22068;SDS011;13887;57.196;-2.100;2023-02-12T06:58:57;12.80;;;12.40;;
22068;SDS011;13887;57.196;-2.100;2023-02-12T07:01:27;12.53;;;12.13;;
22068;SDS011;13887;57.196;-2.100;2023-02-12T07:03:57;12.60;;;12.20;;
22068;SDS011;13887;57.196;-2.100;2023-02-12T07:06:26;12.10;;;11.70;;
22068;SDS011;13887;57.196;-2.100;2023-02-12T07:08:54;12.50;;;12.10;;
22068;SDS011;13887;57.196;-2.100;2023-02-12T07:11:23;12.33;;;11.93;;
22068;SDS011;13887;57.196;-2.100;2023-02-12T07:13:54;12.57;;;12.17;;
22068;SDS011;13887;57.196;-2.100;2023-02-12T07:16:21;12.03;;;11.63;;
22068;SDS011;13887;57.196;-2.100;2023-02-12T07:18:48;12.57;;;12.17;;
22068;SDS011;13887;57.196;-2.100;2023-02-12T07:21:15;12.37;;;11.97;;
22068;SDS011;13887;57.196;-2.100;2023-02-12T07:23:47;12.10;;;11.70;;
22068;SDS011;13887;57.196;-2.100;2023-02-12T07:26:17;12.30;;;11.90;;
22068;SDS011;13887;57.196;-2.100;2023-02-12T07:28:45;11.97;;;11.57;;
22068;SDS011;13887;57.196;-2.100;2023-02-12T07:31:13;12.23;;;11.83;;
22068;SDS011;13887;57.196;-2.100;2023-02-12T07:33:46;12.37;;;11.97;;
22068;SDS011;13887;57.196;-2.100;2023-02-12T07:36:15;11.83;;;11.43;;
22068;SDS011;13887;57.196;-2.100;2023-02-12T07:38:43;12.40;;;12.00;;
22068;SDS011;13887;57.196;-2.100;2023-02-12T07:41:12;12.20;;;11.80;;
22068;SDS011;13887;57.196;-2.100;2023-02-12T07:43:47;12.30;;;11.90;;
22068;SDS011;13887;57.196;-2.100;2023-02-12T07:46:23;11.97;;;11.57;;
22068;SDS011;13887;57.196;-2.100;2023-02-12T07:48:59;12.10;;;11.70;;
22068;SDS011;13887;57.196;-2.100;2023-02-12T07:51:27;11.70;;;11.30;;
22068;SDS011;13887;57.196;-2.100;2023-02-12T07:53:54;12.20;;;11.80;;
22068;SDS011;13887;57.196;-2.100;2023-02-12T07:56:22;11.87;;;11.47;;
22068;SDS011;13887;57.196;-2.100;2023-02-12T07:58:51;12.03;;;11.63;;
22068;SDS011;13887;57.196;-2.100;2023-02-12T08:01:20;12.70;;;12.30;;
22068;SDS011;13887;57.196;-2.100;2023-02-12T08:03:53;12.13;;;11.73;;
22068;SDS011;13887;57.196;-2.100;2023-02-12T08:06:24;11.97;;;11.57;;
22068;SDS011;13887;57.196;-2.100;2023-02-12T08:08:54;12.30;;;11.90;;
22068;SDS011;13887;57.196;-2.100;2023-02-12T08:11:22;12.43;;;12.03;;
22068;SDS011;13887;57.196;-2.100;2023-02-12T08:13:51;12.10;;;11.70;;
22068;SDS011;13887;57.196;-2.100;2023-02-12T08:16:19;11.73;;;11.33;;
22068;SDS011;13887;57.196;-2.100;2023-02-12T08:18:48;12.00;;;11.60;;
22068;SDS011;13887;57.196;-2.100;2023-02-12T08:21:16;11.57;;;11.17;;
22068;SDS011;13887;57.196;-2.100;2023-02-12T08:23:45;11.27;;;10.90;;
22068;SDS011;13887;57.196;-2.100;2023-02-12T08:26:18;12.03;;;11.63;;
22068;SDS011;13887;57.196;-2.100;2023-02-12T08:29:00;11.63;;;11.23;;
22068;SDS011;13887;57.196;-2.100;2023-02-12T08:31:30;11.43;;;11.03;;
22068;SDS011;13887;57.196;-2.100;2023-02-12T08:33:59;11.40;;;11.00;;
22068;SDS011;13887;57.196;-2.100;2023-02-12T08:36:28;11.43;;;11.03;;
22068;SDS011;13887;57.196;-2.100;2023-02-12T08:38:57;11.40;;;11.00;;
22068;SDS011;13887;57.196;-2.100;2023-02-12T08:41:25;10.77;;;10.47;;
22068;SDS011;13887;57.196;-2.100;2023-02-12T08:43:55;11.20;;;10.83;;
22068;SDS011;13887;57.196;-2.100;2023-02-12T08:46:27;10.77;;;10.47;;
22068;SDS011;13887;57.196;-2.100;2023-02-12T08:48:58;11.10;;;10.80;;
22068;SDS011;13887;57.196;-2.100;2023-02-12T08:51:28;11.53;;;11.13;;
22068;SDS011;13887;57.196;-2.100;2023-02-12T08:53:58;10.90;;;10.60;;
22068;SDS011;13887;57.196;-2.100;2023-02-12T08:56:27;10.97;;;10.67;;
22068;SDS011;13887;57.196;-2.100;2023-02-12T08:58:56;10.87;;;10.57;;
22068;SDS011;13887;57.196;-2.100;2023-02-12T09:01:25;11.63;;;11.23;;
22068;SDS011;13887;57.196;-2.100;2023-02-12T09:03:53;11.83;;;11.43;;
22068;SDS011;13887;57.196;-2.100;2023-02-12T09:06:21;10.67;;;10.37;;
22068;SDS011;13887;57.196;-2.100;2023-02-12T09:08:50;11.33;;;10.93;;
22068;SDS011;13887;57.196;-2.100;2023-02-12T09:11:19;11.30;;;10.90;;
22068;SDS011;13887;57.196;-2.100;2023-02-12T09:13:59;11.60;;;11.20;;
22068;SDS011;13887;57.196;-2.100;2023-02-12T09:16:29;11.47;;;11.07;;
22068;SDS011;13887;57.196;-2.100;2023-02-12T09:18:57;10.83;;;10.53;;
22068;SDS011;13887;57.196;-2.100;2023-02-12T09:21:25;11.40;;;11.00;;
22068;SDS011;13887;57.196;-2.100;2023-02-12T09:23:52;10.97;;;10.67;;
22068;SDS011;13887;57.196;-2.100;2023-02-12T09:26:21;11.37;;;10.97;;
22068;SDS011;13887;57.196;-2.100;2023-02-12T09:28:51;10.77;;;10.47;;
22068;SDS011;13887;57.196;-2.100;2023-02-12T09:31:23;11.57;;;11.17;;
22068;SDS011;13887;57.196;-2.100;2023-02-12T09:33:56;11.40;;;11.00;;
22068;SDS011;13887;57.196;-2.100;2023-02-12T09:36:27;11.30;;;10.90;;
22068;SDS011;13887;57.196;-2.100;2023-02-12T09:38:55;12.33;;;11.90;;
22068;SDS011;13887;57.196;-2.100;2023-02-12T09:44:32;10.97;;;10.67;;
22068;SDS011;13887;57.196;-2.100;2023-02-12T09:52:58;10.70;;;10.40;;
22068;SDS011;13887;57.196;-2.100;2023-02-12T09:55:28;11.33;;;10.93;;
22068;SDS011;13887;57.196;-2.100;2023-02-12T09:57:57;10.87;;;10.57;;
22068;SDS011;13887;57.196;-2.100;2023-02-12T10:00:29;11.33;;;10.93;;
22068;SDS011;13887;57.196;-2.100;2023-02-12T10:03:00;11.53;;;11.13;;
22068;SDS011;13887;57.196;-2.100;2023-02-12T10:05:32;11.90;;;11.50;;
22068;SDS011;13887;57.196;-2.100;2023-02-12T10:10:51;11.73;;;11.33;;
22068;SDS011;13887;57.196;-2.100;2023-02-12T10:14:21;11.50;;;11.10;;
22068;SDS011;13887;57.196;-2.100;2023-02-12T10:27:52;11.53;;;11.13;;
22068;SDS011;13887;57.196;-2.100;2023-02-12T10:30:23;11.40;;;11.00;;
22068;SDS011;13887;57.196;-2.100;2023-02-12T10:33:03;11.73;;;11.33;;
22068;SDS011;13887;57.196;-2.100;2023-02-12T10:35:35;11.67;;;11.27;;
22068;SDS011;13887;57.196;-2.100;2023-02-12T10:38:06;11.80;;;11.40;;
22068;SDS011;13887;57.196;-2.100;2023-02-12T10:40:44;12.03;;;11.63;;
22068;SDS011;13887;57.196;-2.100;2023-02-12T10:43:12;12.30;;;11.90;;
22068;SDS011;13887;57.196;-2.100;2023-02-12T10:45:40;11.90;;;11.50;;
22068;SDS011;13887;57.196;-2.100;2023-02-12T10:48:21;11.90;;;11.50;;
22068;SDS011;13887;57.196;-2.100;2023-02-12T10:58:39;11.40;;;11.00;;
22068;SDS011;13887;57.196;-2.100;2023-02-12T11:01:16;11.37;;;10.97;;
22068;SDS011;13887;57.196;-2.100;2023-02-12T11:07:07;11.50;;;11.10;;
22068;SDS011;13887;57.196;-2.100;2023-02-12T11:09:38;11.17;;;10.77;;
22068;SDS011;13887;57.196;-2.100;2023-02-12T11:14:52;11.87;;;11.47;;
22068;SDS011;13887;57.196;-2.100;2023-02-12T11:17:23;11.63;;;11.23;;
22068;SDS011;13887;57.196;-2.100;2023-02-12T11:20:06;11.07;;;10.73;;
22068;SDS011;13887;57.196;-2.100;2023-02-12T11:22:49;11.70;;;11.30;;
22068;SDS011;13887;57.196;-2.100;2023-02-12T11:25:18;12.10;;;11.70;;
22068;SDS011;13887;57.196;-2.100;2023-02-12T11:27:57;12.37;;;11.97;;
22068;SDS011;13887;57.196;-2.100;2023-02-12T11:30:28;11.80;;;11.40;;
22068;SDS011;13887;57.196;-2.100;2023-02-12T11:33:12;11.80;;;11.40;;
22068;SDS011;13887;57.196;-2.100;2023-02-12T11:36:02;11.53;;;11.13;;
22068;SDS011;13887;57.196;-2.100;2023-02-12T11:38:51;11.77;;;11.37;;
22068;SDS011;13887;57.196;-2.100;2023-02-12T11:41:24;11.30;;;10.90;;
22068;SDS011;13887;57.196;-2.100;2023-02-12T11:44:00;11.37;;;10.97;;
22068;SDS011;13887;57.196;-2.100;2023-02-12T11:46:34;11.30;;;10.90;;
22068;SDS011;13887;57.196;-2.100;2023-02-12T11:49:01;11.67;;;11.27;;
22068;SDS011;13887;57.196;-2.100;2023-02-12T11:51:30;11.90;;;11.50;;
22068;SDS011;13887;57.196;-2.100;2023-02-12T11:53:59;11.90;;;11.50;;
22068;SDS011;13887;57.196;-2.100;2023-02-12T11:56:46;11.73;;;11.33;;
22068;SDS011;13887;57.196;-2.100;2023-02-12T12:01:53;11.50;;;11.10;;
22068;SDS011;13887;57.196;-2.100;2023-02-12T12:04:21;11.40;;;11.00;;
22068;SDS011;13887;57.196;-2.100;2023-02-12T12:12:18;11.63;;;11.23;;
22068;SDS011;13887;57.196;-2.100;2023-02-12T12:15:51;11.77;;;11.37;;
22068;SDS011;13887;57.196;-2.100;2023-02-12T12:21:19;11.30;;;10.90;;
22068;SDS011;13887;57.196;-2.100;2023-02-12T12:23:51;10.93;;;10.63;;
22068;SDS011;13887;57.196;-2.100;2023-02-12T12:26:25;11.10;;;10.80;;
22068;SDS011;13887;57.196;-2.100;2023-02-12T12:29:05;10.80;;;10.50;;
22068;SDS011;13887;57.196;-2.100;2023-02-12T12:31:44;10.80;;;10.50;;
22068;SDS011;13887;57.196;-2.100;2023-02-12T12:34:19;10.90;;;10.60;;
22068;SDS011;13887;57.196;-2.100;2023-02-12T12:36:56;10.90;;;10.60;;
22068;SDS011;13887;57.196;-2.100;2023-02-12T13:07:18;10.57;;;10.27;;
22068;SDS011;13887;57.196;-2.100;2023-02-12T13:25:46;11.07;;;10.77;;
22068;SDS011;13887;57.196;-2.100;2023-02-12T13:28:17;11.10;;;10.80;;
22068;SDS011;13887;57.196;-2.100;2023-02-12T13:31:06;10.77;;;10.47;;
22068;SDS011;13887;57.196;-2.100;2023-02-12T13:33:59;10.87;;;10.57;;
22068;SDS011;13887;57.196;-2.100;2023-02-12T13:36:28;10.60;;;10.30;;
22068;SDS011;13887;57.196;-2.100;2023-02-12T13:38:58;11.10;;;10.80;;
22068;SDS011;13887;57.196;-2.100;2023-02-12T13:41:33;10.70;;;10.40;;
22068;SDS011;13887;57.196;-2.100;2023-02-12T13:46:48;11.17;;;10.87;;
22068;SDS011;13887;57.196;-2.100;2023-02-12T13:55:10;10.53;;;10.23;;
22068;SDS011;13887;57.196;-2.100;2023-02-12T14:01:02;10.90;;;10.60;;
22068;SDS011;13887;57.196;-2.100;2023-02-12T14:03:33;10.40;;;10.10;;
22068;SDS011;13887;57.196;-2.100;2023-02-12T14:08:39;11.17;;;10.83;;
22068;SDS011;13887;57.196;-2.100;2023-02-12T14:11:16;10.63;;;10.33;;
22068;SDS011;13887;57.196;-2.100;2023-02-12T14:22:13;10.90;;;10.60;;
22068;SDS011;13887;57.196;-2.100;2023-02-12T14:25:01;10.80;;;10.50;;
22068;SDS011;13887;57.196;-2.100;2023-02-12T14:28:05;10.93;;;10.63;;
22068;SDS011;13887;57.196;-2.100;2023-02-12T14:30:36;10.87;;;10.57;;
22068;SDS011;13887;57.196;-2.100;2023-02-12T14:35:36;10.77;;;10.47;;
22068;SDS011;13887;57.196;-2.100;2023-02-12T14:48:51;11.00;;;10.70;;
22068;SDS011;13887;57.196;-2.100;2023-02-12T14:53:52;10.97;;;10.67;;
22068;SDS011;13887;57.196;-2.100;2023-02-12T14:56:21;11.30;;;10.93;;
22068;SDS011;13887;57.196;-2.100;2023-02-12T14:58:49;11.07;;;10.77;;
22068;SDS011;13887;57.196;-2.100;2023-02-12T15:01:28;11.70;;;11.30;;
22068;SDS011;13887;57.196;-2.100;2023-02-12T15:04:10;12.07;;;11.67;;
22068;SDS011;13887;57.196;-2.100;2023-02-12T15:06:54;11.30;;;10.90;;
22068;SDS011;13887;57.196;-2.100;2023-02-12T15:09:31;11.70;;;11.30;;
22068;SDS011;13887;57.196;-2.100;2023-02-12T15:12:11;11.50;;;11.10;;
22068;SDS011;13887;57.196;-2.100;2023-02-12T15:14:47;11.90;;;11.50;;
22068;SDS011;13887;57.196;-2.100;2023-02-12T15:17:28;12.00;;;11.60;;
22068;SDS011;13887;57.196;-2.100;2023-02-12T15:22:39;11.87;;;11.47;;
22068;SDS011;13887;57.196;-2.100;2023-02-12T15:28:30;12.20;;;11.80;;
22068;SDS011;13887;57.196;-2.100;2023-02-12T15:30:51;11.47;;;11.07;;
22068;SDS011;13887;57.196;-2.100;2023-02-12T15:33:22;12.20;;;11.80;;
22068;SDS011;13887;57.196;-2.100;2023-02-12T15:35:53;11.67;;;11.27;;
22068;SDS011;13887;57.196;-2.100;2023-02-12T15:38:26;12.80;;;12.40;;
22068;SDS011;13887;57.196;-2.100;2023-02-12T15:41:03;12.60;;;12.20;;
22068;SDS011;13887;57.196;-2.100;2023-02-12T15:43:32;12.27;;;11.87;;
22068;SDS011;13887;57.196;-2.100;2023-02-12T15:46:01;12.57;;;12.17;;
22068;SDS011;13887;57.196;-2.100;2023-02-12T15:48:32;12.37;;;11.97;;
22068;SDS011;13887;57.196;-2.100;2023-02-12T15:51:19;12.30;;;11.90;;
22068;SDS011;13887;57.196;-2.100;2023-02-12T15:54:03;12.23;;;11.83;;
22068;SDS011;13887;57.196;-2.100;2023-02-12T15:56:32;11.77;;;11.37;;
22068;SDS011;13887;57.196;-2.100;2023-02-12T15:59:02;11.07;;;10.77;;
22068;SDS011;13887;57.196;-2.100;2023-02-12T16:01:31;12.00;;;11.60;;
22068;SDS011;13887;57.196;-2.100;2023-02-12T16:04:03;12.03;;;11.63;;
22068;SDS011;13887;57.196;-2.100;2023-02-12T16:06:34;11.73;;;11.33;;
22068;SDS011;13887;57.196;-2.100;2023-02-12T16:09:08;12.03;;;11.63;;
22068;SDS011;13887;57.196;-2.100;2023-02-12T16:11:59;11.87;;;11.47;;
22068;SDS011;13887;57.196;-2.100;2023-02-12T16:14:41;11.97;;;11.57;;
22068;SDS011;13887;57.196;-2.100;2023-02-12T16:20:00;11.90;;;11.50;;
22068;SDS011;13887;57.196;-2.100;2023-02-12T16:22:46;12.60;;;12.20;;
22068;SDS011;13887;57.196;-2.100;2023-02-12T16:25:18;12.33;;;11.93;;
22068;SDS011;13887;57.196;-2.100;2023-02-12T16:27:53;11.80;;;11.40;;
22068;SDS011;13887;57.196;-2.100;2023-02-12T16:30:28;11.60;;;11.20;;
22068;SDS011;13887;57.196;-2.100;2023-02-12T16:32:57;11.57;;;11.17;;
22068;SDS011;13887;57.196;-2.100;2023-02-12T16:38:00;11.60;;;11.20;;
22068;SDS011;13887;57.196;-2.100;2023-02-12T16:46:30;11.50;;;11.10;;
22068;SDS011;13887;57.196;-2.100;2023-02-12T16:49:00;11.87;;;11.47;;
22068;SDS011;13887;57.196;-2.100;2023-02-12T16:51:29;11.73;;;11.33;;
22068;SDS011;13887;57.196;-2.100;2023-02-12T16:54:01;11.70;;;11.30;;
22068;SDS011;13887;57.196;-2.100;2023-02-12T16:56:31;10.87;;;10.57;;
22068;SDS011;13887;57.196;-2.100;2023-02-12T16:59:03;11.10;;;10.80;;
22068;SDS011;13887;57.196;-2.100;2023-02-12T17:01:31;10.83;;;10.53;;
22068;SDS011;13887;57.196;-2.100;2023-02-12T17:04:01;10.97;;;10.67;;
22068;SDS011;13887;57.196;-2.100;2023-02-12T17:06:32;10.97;;;10.67;;
22068;SDS011;13887;57.196;-2.100;2023-02-12T17:08:59;12.37;;;11.97;;
22068;SDS011;13887;57.196;-2.100;2023-02-12T17:11:26;12.57;;;12.17;;
22068;SDS011;13887;57.196;-2.100;2023-02-12T17:13:55;11.67;;;11.27;;
22068;SDS011;13887;57.196;-2.100;2023-02-12T17:16:22;12.23;;;11.83;;
22068;SDS011;13887;57.196;-2.100;2023-02-12T17:18:57;12.00;;;11.60;;
22068;SDS011;13887;57.196;-2.100;2023-02-12T17:21:29;12.10;;;11.70;;
22068;SDS011;13887;57.196;-2.100;2023-02-12T17:24:04;11.70;;;11.30;;
22068;SDS011;13887;57.196;-2.100;2023-02-12T17:26:43;11.20;;;10.90;;
22068;SDS011;13887;57.196;-2.100;2023-02-12T17:29:10;11.10;;;10.80;;
22068;SDS011;13887;57.196;-2.100;2023-02-12T17:31:37;11.80;;;11.40;;
22068;SDS011;13887;57.196;-2.100;2023-02-12T17:34:04;12.13;;;11.73;;
22068;SDS011;13887;57.196;-2.100;2023-02-12T17:36:32;12.10;;;11.70;;
22068;SDS011;13887;57.196;-2.100;2023-02-12T17:38:59;12.57;;;12.17;;
22068;SDS011;13887;57.196;-2.100;2023-02-12T17:41:28;12.13;;;11.73;;
22068;SDS011;13887;57.196;-2.100;2023-02-12T17:43:55;12.73;;;12.33;;